sensor_id;sensor_type;location;lat;lon;timestamp;pressure;altitude;pressure_sealevel;temperature;humidity
73518;BME280;61766;60.318;25.044;2023-08-20T00:01:15;102164.72;;;19.83;41.54
73518;BME280;61766;60.318;25.044;2023-08-20T00:03:39;102163.42;;;19.71;41.87
73518;BME280;61766;60.318;25.044;2023-08-20T00:06:04;102161.23;;;19.54;42.33
73518;BME280;61766;60.318;25.044;2023-08-20T00:08:29;102158.54;;;19.66;42.10
73518;BME280;61766;60.318;25.044;2023-08-20T00:10:55;102156.68;;;19.70;42.00
73518;BME280;61766;60.318;25.044;2023-08-20T00:13:21;102153.54;;;19.97;41.76
73518;BME280;61766;60.318;25.044;2023-08-20T00:15:48;102153.10;;;19.87;41.69
73518;BME280;61766;60.318;25.044;2023-08-20T00:18:13;102151.31;;;19.92;41.80
73518;BME280;61766;60.318;25.044;2023-08-20T00:20:39;102154.45;;;19.90;42.01
73518;BME280;61766;60.318;25.044;2023-08-20T00:23:04;102154.11;;;19.79;41.80
73518;BME280;61766;60.318;25.044;2023-08-20T00:25:30;102153.83;;;19.75;42.00
73518;BME280;61766;60.318;25.044;2023-08-20T00:27:55;102154.16;;;19.84;41.99
73518;BME280;61766;60.318;25.044;2023-08-20T00:30:21;102153.04;;;19.80;42.04
73518;BME280;61766;60.318;25.044;2023-08-20T00:32:47;102150.71;;;19.86;42.04
73518;BME280;61766;60.318;25.044;2023-08-20T00:35:13;102151.57;;;19.89;41.94
73518;BME280;61766;60.318;25.044;2023-08-20T00:37:38;102153.82;;;19.83;41.98
73518;BME280;61766;60.318;25.044;2023-08-20T00:40:05;102151.46;;;19.71;41.87
73518;BME280;61766;60.318;25.044;2023-08-20T00:42:30;102148.92;;;19.94;41.77
73518;BME280;61766;60.318;25.044;2023-08-20T00:44:56;102148.99;;;20.01;41.77
73518;BME280;61766;60.318;25.044;2023-08-20T00:47:22;102149.89;;;19.67;41.91
73518;BME280;61766;60.318;25.044;2023-08-20T00:49:47;102148.58;;;19.79;42.15
73518;BME280;61766;60.318;25.044;2023-08-20T00:52:14;102146.36;;;19.73;42.22
73518;BME280;61766;60.318;25.044;2023-08-20T00:54:39;102140.08;;;19.86;41.83
73518;BME280;61766;60.318;25.044;2023-08-20T00:57:05;102141.43;;;19.75;42.00
73518;BME280;61766;60.318;25.044;2023-08-20T00:59:30;102137.69;;;19.70;42.04
73518;BME280;61766;60.318;25.044;2023-08-20T01:01:56;102132.30;;;19.83;41.76
73518;BME280;61766;60.318;25.044;2023-08-20T01:04:22;102133.83;;;19.61;41.97
73518;BME280;61766;60.318;25.044;2023-08-20T01:06:53;102132.59;;;19.54;42.13
73518;BME280;61766;60.318;25.044;2023-08-20T01:09:20;102130.44;;;19.68;41.97
73518;BME280;61766;60.318;25.044;2023-08-20T01:11:42;102128.75;;;19.47;42.03
73518;BME280;61766;60.318;25.044;2023-08-20T01:16:30;102126.29;;;19.53;41.94
73518;BME280;61766;60.318;25.044;2023-08-20T01:18:56;102122.12;;;19.62;41.85
73518;BME280;61766;60.318;25.044;2023-08-20T01:21:29;102122.81;;;19.39;41.97
73518;BME280;61766;60.318;25.044;2023-08-20T01:24:01;102126.62;;;19.14;42.35
73518;BME280;61766;60.318;25.044;2023-08-20T01:26:33;102128.90;;;19.17;42.35
73518;BME280;61766;60.318;25.044;2023-08-20T01:28:39;102129.92;;;19.18;42.39
73518;BME280;61766;60.318;25.044;2023-08-20T01:31:06;102128.83;;;19.21;42.14
73518;BME280;61766;60.318;25.044;2023-08-20T01:33:31;102127.12;;;19.44;42.01
73518;BME280;61766;60.318;25.044;2023-08-20T01:35:57;102127.51;;;19.09;42.13
73518;BME280;61766;60.318;25.044;2023-08-20T01:38:22;102123.78;;;19.03;42.07
73518;BME280;61766;60.318;25.044;2023-08-20T01:40:48;102123.12;;;19.04;42.12
73518;BME280;61766;60.318;25.044;2023-08-20T01:43:14;102119.34;;;18.92;42.70
73518;BME280;61766;60.318;25.044;2023-08-20T01:45:39;102117.64;;;19.36;42.36
73518;BME280;61766;60.318;25.044;2023-08-20T01:48:06;102121.04;;;18.91;42.23
73518;BME280;61766;60.318;25.044;2023-08-20T01:50:31;102121.98;;;19.17;42.17
73518;BME280;61766;60.318;25.044;2023-08-20T01:52:56;102126.69;;;19.34;42.26
73518;BME280;61766;60.318;25.044;2023-08-20T01:55:22;102129.59;;;18.91;42.80
73518;BME280;61766;60.318;25.044;2023-08-20T01:57:48;102131.34;;;18.84;42.66
73518;BME280;61766;60.318;25.044;2023-08-20T02:00:14;102132.82;;;18.79;42.80
73518;BME280;61766;60.318;25.044;2023-08-20T02:02:39;102134.44;;;18.46;42.93
73518;BME280;61766;60.318;25.044;2023-08-20T02:05:05;102138.11;;;18.89;42.96
73518;BME280;61766;60.318;25.044;2023-08-20T02:07:31;102135.41;;;18.68;42.96
73518;BME280;61766;60.318;25.044;2023-08-20T02:09:57;102132.89;;;18.93;42.82
73518;BME280;61766;60.318;25.044;2023-08-20T02:12:22;102133.11;;;18.82;43.01
73518;BME280;61766;60.318;25.044;2023-08-20T02:14:48;102133.29;;;18.86;43.01
73518;BME280;61766;60.318;25.044;2023-08-20T02:17:15;102133.88;;;18.81;42.96
73518;BME280;61766;60.318;25.044;2023-08-20T02:19:40;102132.84;;;18.79;43.19
73518;BME280;61766;60.318;25.044;2023-08-20T02:22:06;102131.08;;;18.68;43.02
73518;BME280;61766;60.318;25.044;2023-08-20T02:24:31;102129.88;;;18.63;43.32
73518;BME280;61766;60.318;25.044;2023-08-20T02:26:57;102124.46;;;18.60;43.22
73518;BME280;61766;60.318;25.044;2023-08-20T02:29:23;102125.25;;;18.57;43.28
73518;BME280;61766;60.318;25.044;2023-08-20T02:31:49;102126.80;;;18.72;43.04
73518;BME280;61766;60.318;25.044;2023-08-20T02:34:14;102124.58;;;18.39;43.39
73518;BME280;61766;60.318;25.044;2023-08-20T02:36:40;102126.32;;;18.36;43.39
73518;BME280;61766;60.318;25.044;2023-08-20T02:39:06;102127.32;;;18.43;43.48
73518;BME280;61766;60.318;25.044;2023-08-20T02:41:32;102127.58;;;18.60;43.12
73518;BME280;61766;60.318;25.044;2023-08-20T02:43:57;102128.20;;;18.59;43.06
73518;BME280;61766;60.318;25.044;2023-08-20T02:46:23;102130.93;;;18.58;43.03
73518;BME280;61766;60.318;25.044;2023-08-20T02:48:49;102130.06;;;18.64;43.01
73518;BME280;61766;60.318;25.044;2023-08-20T02:51:15;102130.86;;;18.49;43.13
73518;BME280;61766;60.318;25.044;2023-08-20T02:53:41;102133.38;;;18.32;43.35
73518;BME280;61766;60.318;25.044;2023-08-20T02:56:06;102133.54;;;18.31;43.71
73518;BME280;61766;60.318;25.044;2023-08-20T02:58:32;102135.04;;;18.31;43.38
73518;BME280;61766;60.318;25.044;2023-08-20T03:00:58;102134.23;;;18.52;43.49
73518;BME280;61766;60.318;25.044;2023-08-20T03:03:24;102139.16;;;18.65;43.20
73518;BME280;61766;60.318;25.044;2023-08-20T03:05:49;102136.01;;;18.53;43.25
73518;BME280;61766;60.318;25.044;2023-08-20T03:08:15;102133.19;;;18.42;43.25
73518;BME280;61766;60.318;25.044;2023-08-20T03:10:41;102128.50;;;18.72;43.12
73518;BME280;61766;60.318;25.044;2023-08-20T03:13:07;102130.80;;;18.45;43.85
73518;BME280;61766;60.318;25.044;2023-08-20T03:15:33;102130.74;;;18.45;43.47
73518;BME280;61766;60.318;25.044;2023-08-20T03:17:58;102129.08;;;18.54;43.20
73518;BME280;61766;60.318;25.044;2023-08-20T03:20:24;102133.44;;;18.41;43.49
73518;BME280;61766;60.318;25.044;2023-08-20T03:22:49;102135.64;;;17.99;43.57
73518;BME280;61766;60.318;25.044;2023-08-20T03:25:15;102136.42;;;18.08;43.90
73518;BME280;61766;60.318;25.044;2023-08-20T03:27:41;102137.14;;;17.90;44.27
73518;BME280;61766;60.318;25.044;2023-08-20T03:30:08;102135.99;;;17.76;44.20
73518;BME280;61766;60.318;25.044;2023-08-20T03:32:33;102132.85;;;17.69;44.08
73518;BME280;61766;60.318;25.044;2023-08-20T03:34:58;102130.79;;;17.65;44.10
73518;BME280;61766;60.318;25.044;2023-08-20T03:37:24;102129.46;;;18.21;44.13
73518;BME280;61766;60.318;25.044;2023-08-20T03:39:50;102129.44;;;18.33;43.96
73518;BME280;61766;60.318;25.044;2023-08-20T03:42:16;102124.60;;;18.49;43.61
73518;BME280;61766;60.318;25.044;2023-08-20T03:44:42;102123.78;;;18.08;43.58
73518;BME280;61766;60.318;25.044;2023-08-20T03:47:08;102128.13;;;17.98;43.55
73518;BME280;61766;60.318;25.044;2023-08-20T03:49:33;102126.52;;;18.21;43.36
73518;BME280;61766;60.318;25.044;2023-08-20T03:51:59;102124.50;;;18.06;43.61
73518;BME280;61766;60.318;25.044;2023-08-20T03:54:25;102128.47;;;18.24;43.48
73518;BME280;61766;60.318;25.044;2023-08-20T03:56:50;102126.77;;;18.37;43.10
73518;BME280;61766;60.318;25.044;2023-08-20T03:59:16;102126.44;;;18.26;43.19
73518;BME280;61766;60.318;25.044;2023-08-20T04:01:42;102127.57;;;18.49;43.20
73518;BME280;61766;60.318;25.044;2023-08-20T04:04:08;102122.08;;;18.07;43.58
73518;BME280;61766;60.318;25.044;2023-08-20T04:06:34;102124.80;;;18.25;43.63
73518;BME280;61766;60.318;25.044;2023-08-20T04:08:59;102125.28;;;18.09;43.52
73518;BME280;61766;60.318;25.044;2023-08-20T04:11:25;102126.43;;;18.22;43.46
73518;BME280;61766;60.318;25.044;2023-08-20T04:13:51;102125.24;;;18.13;43.66
73518;BME280;61766;60.318;25.044;2023-08-20T04:16:17;102127.90;;;18.18;43.26
73518;BME280;61766;60.318;25.044;2023-08-20T04:18:42;102132.59;;;17.79;43.73
73518;BME280;61766;60.318;25.044;2023-08-20T04:21:08;102133.26;;;17.74;44.39
73518;BME280;61766;60.318;25.044;2023-08-20T04:23:34;102132.09;;;17.80;44.82
73518;BME280;61766;60.318;25.044;2023-08-20T04:26:00;102132.73;;;17.68;45.02
73518;BME280;61766;60.318;25.044;2023-08-20T04:28:25;102129.86;;;17.86;45.21
73518;BME280;61766;60.318;25.044;2023-08-20T04:30:52;102128.11;;;17.73;44.58
73518;BME280;61766;60.318;25.044;2023-08-20T04:33:17;102128.31;;;18.02;44.57
73518;BME280;61766;60.318;25.044;2023-08-20T04:35:42;102126.37;;;18.06;44.09
73518;BME280;61766;60.318;25.044;2023-08-20T04:38:08;102127.09;;;18.03;44.35
73518;BME280;61766;60.318;25.044;2023-08-20T04:40:34;102124.57;;;17.93;44.06
73518;BME280;61766;60.318;25.044;2023-08-20T04:43:00;102126.44;;;17.84;44.40
73518;BME280;61766;60.318;25.044;2023-08-20T04:45:26;102125.26;;;18.11;44.10
73518;BME280;61766;60.318;25.044;2023-08-20T04:47:51;102121.85;;;18.04;44.23
73518;BME280;61766;60.318;25.044;2023-08-20T04:50:17;102117.59;;;18.17;43.68
73518;BME280;61766;60.318;25.044;2023-08-20T04:52:43;102115.34;;;17.67;43.86
73518;BME280;61766;60.318;25.044;2023-08-20T04:55:09;102109.96;;;18.02;43.76
73518;BME280;61766;60.318;25.044;2023-08-20T04:57:35;102107.89;;;17.95;43.90
73518;BME280;61766;60.318;25.044;2023-08-20T05:00:00;102109.74;;;17.57;43.91
73518;BME280;61766;60.318;25.044;2023-08-20T05:02:26;102109.13;;;17.86;43.48
73518;BME280;61766;60.318;25.044;2023-08-20T05:04:52;102110.96;;;18.51;43.14
73518;BME280;61766;60.318;25.044;2023-08-20T05:07:18;102109.67;;;18.09;43.42
73518;BME280;61766;60.318;25.044;2023-08-20T05:09:43;102107.45;;;18.78;43.14
73518;BME280;61766;60.318;25.044;2023-08-20T05:12:10;102107.40;;;18.37;43.18
73518;BME280;61766;60.318;25.044;2023-08-20T05:14:35;102106.73;;;18.34;42.85
73518;BME280;61766;60.318;25.044;2023-08-20T05:17:01;102107.20;;;18.61;42.80
73518;BME280;61766;60.318;25.044;2023-08-20T05:19:26;102105.90;;;18.87;42.70
73518;BME280;61766;60.318;25.044;2023-08-20T05:21:52;102101.36;;;18.65;42.66
73518;BME280;61766;60.318;25.044;2023-08-20T05:24:18;102106.57;;;18.63;42.52
73518;BME280;61766;60.318;25.044;2023-08-20T05:26:44;102101.25;;;19.06;42.10
73518;BME280;61766;60.318;25.044;2023-08-20T05:29:09;102101.16;;;18.73;42.26
73518;BME280;61766;60.318;25.044;2023-08-20T05:31:35;102103.13;;;19.06;41.42
73518;BME280;61766;60.318;25.044;2023-08-20T05:34:01;102101.60;;;19.17;40.78
73518;BME280;61766;60.318;25.044;2023-08-20T05:36:27;102100.12;;;19.48;40.88
73518;BME280;61766;60.318;25.044;2023-08-20T05:38:52;102097.52;;;19.54;40.78
73518;BME280;61766;60.318;25.044;2023-08-20T05:41:18;102098.90;;;19.31;40.19
73518;BME280;61766;60.318;25.044;2023-08-20T05:43:44;102101.88;;;19.59;40.72
73518;BME280;61766;60.318;25.044;2023-08-20T05:46:09;102106.71;;;19.86;40.29
73518;BME280;61766;60.318;25.044;2023-08-20T05:48:35;102110.76;;;20.05;39.84
73518;BME280;61766;60.318;25.044;2023-08-20T05:51:01;102115.83;;;20.24;40.26
73518;BME280;61766;60.318;25.044;2023-08-20T05:53:27;102112.25;;;20.11;38.98
73518;BME280;61766;60.318;25.044;2023-08-20T05:55:52;102114.07;;;20.52;39.06
73518;BME280;61766;60.318;25.044;2023-08-20T05:58:18;102119.16;;;20.52;39.25
73518;BME280;61766;60.318;25.044;2023-08-20T06:00:44;102119.04;;;20.55;38.79
73518;BME280;61766;60.318;25.044;2023-08-20T06:03:09;102123.45;;;20.89;38.78
73518;BME280;61766;60.318;25.044;2023-08-20T06:05:35;102124.24;;;20.54;38.77
73518;BME280;61766;60.318;25.044;2023-08-20T06:08:01;102123.84;;;20.74;38.51
73518;BME280;61766;60.318;25.044;2023-08-20T06:10:27;102123.58;;;21.07;37.70
73518;BME280;61766;60.318;25.044;2023-08-20T06:12:52;102125.25;;;21.08;38.06
73518;BME280;61766;60.318;25.044;2023-08-20T06:15:18;102122.99;;;20.58;38.46
73518;BME280;61766;60.318;25.044;2023-08-20T06:17:44;102130.36;;;20.91;38.44
73518;BME280;61766;60.318;25.044;2023-08-20T06:20:10;102126.72;;;21.23;37.90
73518;BME280;61766;60.318;25.044;2023-08-20T06:22:35;102126.03;;;21.19;37.74
73518;BME280;61766;60.318;25.044;2023-08-20T06:25:02;102130.26;;;21.18;38.24
73518;BME280;61766;60.318;25.044;2023-08-20T06:27:27;102128.93;;;21.33;37.97
73518;BME280;61766;60.318;25.044;2023-08-20T06:29:52;102132.55;;;21.41;38.09
73518;BME280;61766;60.318;25.044;2023-08-20T06:32:18;102133.17;;;21.25;37.16
73518;BME280;61766;60.318;25.044;2023-08-20T06:34:44;102131.80;;;21.17;38.19
73518;BME280;61766;60.318;25.044;2023-08-20T06:37:09;102129.64;;;21.19;37.84
73518;BME280;61766;60.318;25.044;2023-08-20T06:39:35;102131.27;;;21.17;37.67
73518;BME280;61766;60.318;25.044;2023-08-20T06:42:01;102131.63;;;21.48;36.69
73518;BME280;61766;60.318;25.044;2023-08-20T06:44:26;102126.38;;;21.76;36.77
73518;BME280;61766;60.318;25.044;2023-08-20T06:46:52;102121.65;;;21.63;37.67
73518;BME280;61766;60.318;25.044;2023-08-20T06:49:18;102119.59;;;22.49;36.97
73518;BME280;61766;60.318;25.044;2023-08-20T06:51:44;102116.46;;;22.56;35.92
73518;BME280;61766;60.318;25.044;2023-08-20T06:54:09;102118.52;;;21.82;36.51
73518;BME280;61766;60.318;25.044;2023-08-20T06:56:35;102115.35;;;22.56;36.01
73518;BME280;61766;60.318;25.044;2023-08-20T06:59:01;102116.83;;;22.36;36.17
73518;BME280;61766;60.318;25.044;2023-08-20T07:01:26;102113.94;;;22.36;35.85
73518;BME280;61766;60.318;25.044;2023-08-20T07:03:52;102114.88;;;22.43;35.24
73518;BME280;61766;60.318;25.044;2023-08-20T07:06:18;102116.32;;;22.51;35.11
73518;BME280;61766;60.318;25.044;2023-08-20T07:08:43;102111.95;;;22.52;35.44
73518;BME280;61766;60.318;25.044;2023-08-20T07:11:09;102109.95;;;23.19;35.37
73518;BME280;61766;60.318;25.044;2023-08-20T07:13:35;102110.13;;;23.08;35.27
73518;BME280;61766;60.318;25.044;2023-08-20T07:16:00;102108.11;;;23.22;34.83
73518;BME280;61766;60.318;25.044;2023-08-20T07:18:26;102109.51;;;23.29;34.12
73518;BME280;61766;60.318;25.044;2023-08-20T07:20:54;102110.82;;;24.07;34.31
73518;BME280;61766;60.318;25.044;2023-08-20T07:23:17;102111.51;;;23.85;34.16
73518;BME280;61766;60.318;25.044;2023-08-20T07:25:43;102104.21;;;24.01;33.79
73518;BME280;61766;60.318;25.044;2023-08-20T07:28:09;102101.52;;;24.05;32.97
73518;BME280;61766;60.318;25.044;2023-08-20T07:30:34;102095.97;;;23.86;33.08
73518;BME280;61766;60.318;25.044;2023-08-20T07:33:00;102099.74;;;23.52;33.22
73518;BME280;61766;60.318;25.044;2023-08-20T07:35:25;102106.68;;;23.42;33.15
73518;BME280;61766;60.318;25.044;2023-08-20T07:37:51;102105.72;;;23.71;33.45
73518;BME280;61766;60.318;25.044;2023-08-20T07:40:17;102108.50;;;24.09;32.52
73518;BME280;61766;60.318;25.044;2023-08-20T07:42:43;102116.49;;;23.63;33.71
73518;BME280;61766;60.318;25.044;2023-08-20T07:45:09;102112.91;;;23.67;33.36
73518;BME280;61766;60.318;25.044;2023-08-20T07:47:34;102111.57;;;23.54;34.91
73518;BME280;61766;60.318;25.044;2023-08-20T07:49:59;102115.80;;;23.58;34.36
73518;BME280;61766;60.318;25.044;2023-08-20T07:52:25;102114.57;;;22.92;34.66
73518;BME280;61766;60.318;25.044;2023-08-20T07:54:51;102120.29;;;23.30;34.76
73518;BME280;61766;60.318;25.044;2023-08-20T07:57:16;102117.46;;;23.35;34.70
73518;BME280;61766;60.318;25.044;2023-08-20T07:59:42;102112.87;;;22.32;35.81
73518;BME280;61766;60.318;25.044;2023-08-20T08:02:08;102109.12;;;22.53;36.04
73518;BME280;61766;60.318;25.044;2023-08-20T08:04:33;102108.48;;;23.34;35.48
73518;BME280;61766;60.318;25.044;2023-08-20T08:06:59;102108.96;;;23.39;34.61
73518;BME280;61766;60.318;25.044;2023-08-20T08:09:29;102109.01;;;23.31;34.72
73518;BME280;61766;60.318;25.044;2023-08-20T08:11:50;102111.14;;;22.72;35.52
73518;BME280;61766;60.318;25.044;2023-08-20T08:14:16;102107.80;;;23.22;35.32
73518;BME280;61766;60.318;25.044;2023-08-20T08:16:42;102103.76;;;23.51;35.43
73518;BME280;61766;60.318;25.044;2023-08-20T08:19:07;102102.81;;;24.02;34.82
73518;BME280;61766;60.318;25.044;2023-08-20T08:21:33;102107.25;;;24.05;34.70
73518;BME280;61766;60.318;25.044;2023-08-20T08:23:59;102109.96;;;23.82;34.52
73518;BME280;61766;60.318;25.044;2023-08-20T08:26:24;102111.90;;;23.67;33.90
73518;BME280;61766;60.318;25.044;2023-08-20T08:28:50;102109.82;;;23.74;34.06
73518;BME280;61766;60.318;25.044;2023-08-20T08:31:15;102110.84;;;24.42;32.89
73518;BME280;61766;60.318;25.044;2023-08-20T08:33:41;102113.40;;;24.51;33.35
73518;BME280;61766;60.318;25.044;2023-08-20T08:36:07;102114.43;;;23.76;33.37
73518;BME280;61766;60.318;25.044;2023-08-20T08:38:32;102114.70;;;24.24;33.88
73518;BME280;61766;60.318;25.044;2023-08-20T08:40:58;102111.23;;;24.04;33.45
73518;BME280;61766;60.318;25.044;2023-08-20T08:43:24;102117.47;;;24.01;33.30
73518;BME280;61766;60.318;25.044;2023-08-20T08:45:50;102118.91;;;23.77;33.88
73518;BME280;61766;60.318;25.044;2023-08-20T08:48:15;102118.26;;;24.25;33.89
73518;BME280;61766;60.318;25.044;2023-08-20T08:50:40;102111.74;;;24.05;34.29
73518;BME280;61766;60.318;25.044;2023-08-20T08:53:07;102111.84;;;23.48;34.38
73518;BME280;61766;60.318;25.044;2023-08-20T08:55:32;102110.01;;;23.53;34.45
73518;BME280;61766;60.318;25.044;2023-08-20T08:57:57;102108.23;;;24.14;34.47
73518;BME280;61766;60.318;25.044;2023-08-20T09:00:23;102101.69;;;24.06;35.32
73518;BME280;61766;60.318;25.044;2023-08-20T09:02:49;102103.50;;;24.68;33.75
73518;BME280;61766;60.318;25.044;2023-08-20T09:05:16;102100.00;;;24.92;33.68
73518;BME280;61766;60.318;25.044;2023-08-20T09:07:44;102102.83;;;25.15;32.44
73518;BME280;61766;60.318;25.044;2023-08-20T09:10:06;102100.91;;;25.08;31.99
73518;BME280;61766;60.318;25.044;2023-08-20T09:12:33;102101.91;;;25.50;32.03
73518;BME280;61766;60.318;25.044;2023-08-20T09:14:57;102098.51;;;24.74;32.65
73518;BME280;61766;60.318;25.044;2023-08-20T09:17:24;102098.72;;;24.85;32.67
73518;BME280;61766;60.318;25.044;2023-08-20T09:19:49;102098.40;;;24.57;32.63
73518;BME280;61766;60.318;25.044;2023-08-20T09:22:15;102098.53;;;23.91;33.08
73518;BME280;61766;60.318;25.044;2023-08-20T09:24:44;102098.75;;;24.81;33.27
73518;BME280;61766;60.318;25.044;2023-08-20T09:27:07;102091.81;;;24.87;33.38
73518;BME280;61766;60.318;25.044;2023-08-20T09:29:31;102095.12;;;24.74;33.00
73518;BME280;61766;60.318;25.044;2023-08-20T09:32:02;102095.39;;;24.52;33.24
73518;BME280;61766;60.318;25.044;2023-08-20T09:34:22;102094.80;;;24.85;32.71
73518;BME280;61766;60.318;25.044;2023-08-20T09:36:48;102090.98;;;25.24;32.40
73518;BME280;61766;60.318;25.044;2023-08-20T09:39:13;102091.24;;;25.39;32.11
73518;BME280;61766;60.318;25.044;2023-08-20T09:41:39;102086.91;;;24.86;32.30
73518;BME280;61766;60.318;25.044;2023-08-20T09:44:05;102087.27;;;24.81;31.88
73518;BME280;61766;60.318;25.044;2023-08-20T09:46:34;102086.89;;;24.76;31.71
73518;BME280;61766;60.318;25.044;2023-08-20T09:48:59;102085.23;;;24.47;32.52
73518;BME280;61766;60.318;25.044;2023-08-20T09:51:26;102082.14;;;24.20;33.20
73518;BME280;61766;60.318;25.044;2023-08-20T09:53:53;102076.24;;;23.63;33.26
73518;BME280;61766;60.318;25.044;2023-08-20T09:56:15;102079.57;;;23.04;34.59
73518;BME280;61766;60.318;25.044;2023-08-20T09:58:39;102075.38;;;24.67;33.00
73518;BME280;61766;60.318;25.044;2023-08-20T10:01:04;102075.18;;;24.77;31.72
73518;BME280;61766;60.318;25.044;2023-08-20T10:03:30;102077.09;;;25.14;31.28
73518;BME280;61766;60.318;25.044;2023-08-20T10:05:55;102072.07;;;26.28;31.78
73518;BME280;61766;60.318;25.044;2023-08-20T10:08:21;102066.14;;;26.24;31.04
73518;BME280;61766;60.318;25.044;2023-08-20T10:10:47;102066.58;;;26.19;29.35
73518;BME280;61766;60.318;25.044;2023-08-20T10:13:13;102065.19;;;25.53;29.67
73518;BME280;61766;60.318;25.044;2023-08-20T10:15:38;102066.46;;;25.48;30.52
73518;BME280;61766;60.318;25.044;2023-08-20T10:18:04;102061.86;;;26.21;30.16
73518;BME280;61766;60.318;25.044;2023-08-20T10:20:32;102061.10;;;25.22;30.96
73518;BME280;61766;60.318;25.044;2023-08-20T10:22:57;102060.13;;;25.38;31.15
73518;BME280;61766;60.318;25.044;2023-08-20T10:25:26;102064.42;;;25.53;30.87
73518;BME280;61766;60.318;25.044;2023-08-20T10:27:46;102065.77;;;25.32;31.11
73518;BME280;61766;60.318;25.044;2023-08-20T10:30:18;102065.47;;;25.31;30.13
73518;BME280;61766;60.318;25.044;2023-08-20T10:32:43;102063.36;;;25.74;31.17
73518;BME280;61766;60.318;25.044;2023-08-20T10:35:03;102061.99;;;26.05;30.61
73518;BME280;61766;60.318;25.044;2023-08-20T10:37:30;102052.60;;;26.29;28.24
73518;BME280;61766;60.318;25.044;2023-08-20T10:39:57;102050.18;;;26.54;28.70
73518;BME280;61766;60.318;25.044;2023-08-20T10:42:26;102050.34;;;25.81;30.34
73518;BME280;61766;60.318;25.044;2023-08-20T10:44:56;102051.06;;;25.38;31.26
73518;BME280;61766;60.318;25.044;2023-08-20T10:47:12;102049.46;;;24.56;32.71
73518;BME280;61766;60.318;25.044;2023-08-20T10:49:36;102049.34;;;24.39;33.04
73518;BME280;61766;60.318;25.044;2023-08-20T10:52:05;102046.58;;;25.29;31.92
73518;BME280;61766;60.318;25.044;2023-08-20T10:54:28;102043.16;;;24.01;32.02
73518;BME280;61766;60.318;25.044;2023-08-20T10:56:58;102044.28;;;25.30;31.96
73518;BME280;61766;60.318;25.044;2023-08-20T10:59:21;102045.44;;;25.13;33.07
73518;BME280;61766;60.318;25.044;2023-08-20T11:01:47;102042.49;;;25.09;30.86
73518;BME280;61766;60.318;25.044;2023-08-20T11:04:10;102038.13;;;25.05;31.93
73518;BME280;61766;60.318;25.044;2023-08-20T11:06:36;102037.81;;;24.34;32.85
73518;BME280;61766;60.318;25.044;2023-08-20T11:09:02;102035.71;;;24.67;32.17
73518;BME280;61766;60.318;25.044;2023-08-20T11:11:27;102034.51;;;25.39;31.84
73518;BME280;61766;60.318;25.044;2023-08-20T11:13:53;102035.18;;;25.41;32.23
73518;BME280;61766;60.318;25.044;2023-08-20T11:16:18;102028.90;;;25.49;31.13
73518;BME280;61766;60.318;25.044;2023-08-20T11:18:44;102024.92;;;25.72;30.40
73518;BME280;61766;60.318;25.044;2023-08-20T11:21:11;102021.87;;;25.95;29.74
73518;BME280;61766;60.318;25.044;2023-08-20T11:23:35;102019.73;;;25.74;29.30
73518;BME280;61766;60.318;25.044;2023-08-20T11:26:01;102020.74;;;25.55;31.16
73518;BME280;61766;60.318;25.044;2023-08-20T11:28:28;102013.49;;;25.96;30.69
73518;BME280;61766;60.318;25.044;2023-08-20T11:30:52;102006.75;;;26.30;30.53
73518;BME280;61766;60.318;25.044;2023-08-20T11:33:18;102007.59;;;26.44;31.58
73518;BME280;61766;60.318;25.044;2023-08-20T11:35:44;102012.27;;;25.44;32.47
73518;BME280;61766;60.318;25.044;2023-08-20T11:38:09;102008.10;;;25.69;32.42
73518;BME280;61766;60.318;25.044;2023-08-20T11:40:35;102008.22;;;25.67;32.60
73518;BME280;61766;60.318;25.044;2023-08-20T11:43:00;102006.38;;;25.57;30.65
73518;BME280;61766;60.318;25.044;2023-08-20T11:45:26;101997.36;;;25.77;31.45
73518;BME280;61766;60.318;25.044;2023-08-20T11:47:55;102001.81;;;25.52;30.41
73518;BME280;61766;60.318;25.044;2023-08-20T11:50:20;102002.70;;;25.11;31.90
73518;BME280;61766;60.318;25.044;2023-08-20T11:52:43;102002.83;;;25.34;31.83
73518;BME280;61766;60.318;25.044;2023-08-20T11:55:09;102000.14;;;25.52;31.64
73518;BME280;61766;60.318;25.044;2023-08-20T11:57:34;101997.61;;;25.52;31.52
73518;BME280;61766;60.318;25.044;2023-08-20T12:00:04;101994.12;;;25.91;31.84
73518;BME280;61766;60.318;25.044;2023-08-20T12:02:28;101991.87;;;25.87;31.39
73518;BME280;61766;60.318;25.044;2023-08-20T12:04:55;101990.27;;;25.60;30.56
73518;BME280;61766;60.318;25.044;2023-08-20T12:07:18;101982.06;;;26.19;30.20
73518;BME280;61766;60.318;25.044;2023-08-20T12:09:42;101982.79;;;25.85;29.46
73518;BME280;61766;60.318;25.044;2023-08-20T12:12:09;101980.13;;;26.36;29.40
73518;BME280;61766;60.318;25.044;2023-08-20T12:14:33;101980.73;;;27.35;28.99
73518;BME280;61766;60.318;25.044;2023-08-20T12:16:59;101980.47;;;26.78;30.46
73518;BME280;61766;60.318;25.044;2023-08-20T12:19:25;101974.66;;;27.14;28.94
73518;BME280;61766;60.318;25.044;2023-08-20T12:21:51;101975.53;;;26.44;30.73
73518;BME280;61766;60.318;25.044;2023-08-20T12:24:16;101976.75;;;25.92;30.38
73518;BME280;61766;60.318;25.044;2023-08-20T12:26:42;101978.71;;;26.33;29.45
73518;BME280;61766;60.318;25.044;2023-08-20T12:29:07;101970.58;;;26.16;29.36
73518;BME280;61766;60.318;25.044;2023-08-20T12:31:33;101970.74;;;26.65;29.47
73518;BME280;61766;60.318;25.044;2023-08-20T12:33:59;101967.68;;;26.91;29.23